DABS

Details ICAO DABS (TEE)
Name CHEIKH LARBI TEBESSI
Region Algeria
Timezone Africa/Algiers (UTC+1.0)
Plans Departing 13
Arriving 17
Stats Elevation 2,661 ft / 811 m (AMSL)
Location 35.431610° 8.120716°
Runways 2
Magnetic Variation 2.009° E
Sunrise 2018-05-21 04:20:25 UTC / 2018-05-21 05:20:25 Local
Sunset 2018-05-21 18:30:38 UTC / 2018-05-21 19:30:38 Local
Advertisement - Login to hide

Runways

ID Width Length Bearing (true) Bearing (mag) Surface Threshold Offset Overrun Length
11 148 ft / 45 m 9,850 ft / 3,002 m 112.75° 110.74° Asphalt 0 ft / 0 m 345 ft / 105 m
12 98 ft / 30 m 7,867 ft / 2,398 m 121.86° 119.85° Asphalt 0 ft / 0 m 0 ft / 0 m
29 148 ft / 45 m 9,850 ft / 3,002 m 292.76° 290.75° Asphalt 0 ft / 0 m 345 ft / 105 m
30 98 ft / 30 m 7,867 ft / 2,398 m 301.88° 299.87° Asphalt 0 ft / 0 m 0 ft / 0 m

Map

Weather


0- 5 10 15 20 25 30 35+ Temperature / ° C

Clouds and Precipitation
Forecast for 2018-05-21 18:00 UTC. Updated 17 minutes ago

Ground ~20,000 ft ~40,000 ft Winds

METAR

DABS 211500Z 26006KT 9999 FEW030 SCT033 24/11 Q1011

TAF

TAF DABS 211100Z 2112/2212 32012KT 9999 FEW030TCU BKN033 TEMPO 2112/2121 4000 RA BECMG 2120/2122 05008KT TEMPO 2123/2207 3000 BR BKN010 TEMPO 2203/2212 2000 TSRA FEW023CB PROB30 TEMPO 2203/2209 -TSGR

Frequencies

Tower 118.10 MHz TEBESSA TWR
Tower 119.70 MHz TEBESSA TWR
Warning: Do not use this data for real-world aviation or navigation. No guarantee of current accuracy is given.